Al Kharj — D5ME2 — position and weather

sailwx.info

Track history (hours):
 
Tides and Currents Weather Stations Pressure Air Temp Water Temp Dewpoint Dewpoint Depression Visibility Wind Speed Wind Dir Waves Ship Positions

Al Kharj

Last reported at 2017-Nov-18 02:43 UTC. Time now 2017-Nov-25 02:14 UTC.
Position N 01°18' E 103°19'.

Length 306 m; draft 13.2 m.

Type: Cargo ship. MMSI: 636017671.

Date/timePositionNaut miles runAvg speedWind from/ knotsBaromVisibWave heightAir tempDewpointWater temp
2017-Nov-18 02:43N 01°18' E 103°19'313.2
2017-Nov-18 02:28N 01°16' E 103°22'916.0
2017-Nov-18 01:53N 01°12' E 103°31'615.1
2017-Nov-18 01:30N 01°12' E 103°36'4 8.5
2017-Nov-18 01:00N 01°13' E 103°40'612.2
2017-Nov-18 00:31N 01°16' E 103°45'1 2.2
2017-Nov-18 00:00N 01°16' E 103°47'0 0.2
2017-Nov-17 23:30N 01°16' E 103°46'0 0.0
2017-Nov-17 23:00N 01°16' E 103°46'0 0.0
2017-Nov-17 22:30N 01°16' E 103°46'0 0.0
2017-Nov-17 22:00N 01°16' E 103°46'0 0.0
2017-Nov-17 21:30N 01°16' E 103°46'0 0.0
2017-Nov-17 21:00N 01°16' E 103°46'0 0.0
2017-Nov-17 20:30N 01°16' E 103°46'0 0.0
2017-Nov-17 20:00N 01°16' E 103°46'0 0.0
2017-Nov-17 19:30N 01°16' E 103°46'0 0.0
2017-Nov-17 19:00N 01°16' E 103°46'0 0.0
2017-Nov-17 18:30N 01°16' E 103°46'0 0.0
2017-Nov-17 18:00N 01°16' E 103°46'0 0.0
2017-Nov-17 17:30N 01°16' E 103°46'0 0.0
2017-Nov-17 17:00N 01°16' E 103°46'0 0.0
2017-Nov-17 16:30N 01°16' E 103°46'0 0.0
2017-Nov-17 16:00N 01°16' E 103°46'0 0.0
2017-Nov-17 15:30N 01°16' E 103°46'0 0.0
2017-Nov-17 15:00N 01°16' E 103°46'0 0.0
2017-Nov-17 14:30N 01°16' E 103°46'0 0.0
2017-Nov-17 14:00N 01°16' E 103°46'0 0.0
2017-Nov-17 13:30N 01°16' E 103°46'0 0.0
2017-Nov-17 13:00N 01°16' E 103°46'0 0.0
2017-Nov-17 12:30N 01°16' E 103°46'0 0.0
2017-Nov-17 12:00N 01°16' E 103°46'0 0.0
2017-Nov-17 11:30N 01°16' E 103°46'0 0.0
2017-Nov-17 11:00N 01°16' E 103°46'0 0.0
2017-Nov-17 10:30N 01°16' E 103°46'0 0.0
2017-Nov-17 09:57N 01°16' E 103°46'0 0.0
2017-Nov-17 09:30N 01°16' E 103°46'0 0.0
2017-Nov-17 08:57N 01°16' E 103°46'0 0.0
2017-Nov-17 08:30N 01°16' E 103°46'0 0.0
2017-Nov-17 08:00N 01°16' E 103°46'0 0.0
2017-Nov-17 07:30N 01°16' E 103°46'0 0.0
2017-Nov-17 07:00N 01°16' E 103°46'0 0.0
2017-Nov-17 06:30N 01°16' E 103°46'0 0.0
2017-Nov-17 06:00N 01°16' E 103°46'0 0.0
2017-Nov-17 05:30N 01°16' E 103°46'0 0.0
2017-Nov-17 05:00N 01°16' E 103°46'0 0.0
2017-Nov-17 04:30N 01°16' E 103°46'0 0.0
2017-Nov-17 04:00N 01°16' E 103°46'0 0.0
2017-Nov-17 03:30N 01°16' E 103°46'0 0.0
2017-Nov-17 03:00N 01°16' E 103°46'1 1.1
2017-Nov-17 02:30N 01°16' E 103°47'2 3.1
2017-Nov-17 02:00N 01°17' E 103°46'1 1.2
2017-Nov-17 01:30N 01°17' E 103°46'0 0.0
2017-Nov-17 01:00N 01°17' E 103°46'0 0.0
2017-Nov-17 00:30N 01°17' E 103°46'0 0.0
2017-Nov-17 00:00N 01°17' E 103°46'0 0.0
2017-Nov-16 23:30N 01°17' E 103°46'0 0.0
2017-Nov-16 23:00N 01°17' E 103°46'0 0.0
2017-Nov-16 22:30N 01°17' E 103°46'0 0.0
2017-Nov-16 22:00N 01°17' E 103°46'0 0.0
2017-Nov-16 21:30N 01°17' E 103°46'0 0.0
2017-Nov-16 21:00N 01°17' E 103°46'0 0.0
2017-Nov-16 20:30N 01°17' E 103°46'0 0.0
2017-Nov-16 20:00N 01°17' E 103°46'0 0.0
2017-Nov-16 19:30N 01°17' E 103°46'0 0.0
2017-Nov-16 19:00N 01°17' E 103°46'0 0.0
2017-Nov-16 18:30N 01°17' E 103°46'0 0.0
2017-Nov-16 18:00N 01°17' E 103°46'0 0.0
2017-Nov-16 17:30N 01°17' E 103°46'0 0.0
2017-Nov-16 17:00N 01°17' E 103°46'0 0.0
2017-Nov-16 16:30N 01°17' E 103°46'0 0.0
2017-Nov-16 16:00N 01°17' E 103°46'0 0.1
2017-Nov-16 15:30N 01°17' E 103°46'1 1.9
2017-Nov-16 15:01N 01°17' E 103°45'1 2.2
2017-Nov-16 14:30N 01°16' E 103°45'2 4.6
2017-Nov-16 14:01N 01°15' E 103°44'5 9.6
2017-Nov-16 13:30N 01°11' E 103°40'2 4.1
2017-Nov-16 12:59N 01°10' E 103°42'0 0.2
2017-Nov-16 12:29N 01°10' E 103°42'0 0.3
2017-Nov-16 11:59N 01°10' E 103°42'0 0.0
2017-Nov-16 11:29N 01°10' E 103°42'0 0.1
2017-Nov-16 10:59N 01°11' E 103°42'0 0.2
2017-Nov-16 10:26N 01°11' E 103°42'0 0.0
2017-Nov-16 09:56N 01°11' E 103°42'0 0.1
2017-Nov-16 09:29N 01°11' E 103°42'0 0.0
2017-Nov-16 08:53N 01°11' E 103°42'0 0.2
2017-Nov-16 08:29N 01°11' E 103°42'0 0.1
2017-Nov-16 07:59N 01°11' E 103°42'0 0.0
2017-Nov-16 07:26N 01°11' E 103°42'0 0.0
2017-Nov-16 06:56N 01°11' E 103°42'0 0.0
2017-Nov-16 06:29N 01°11' E 103°42'0 0.2
2017-Nov-16 05:59N 01°10' E 103°43'0 0.1
2017-Nov-16 05:29N 01°11' E 103°43'0 0.5
2017-Nov-16 04:59N 01°11' E 103°42'2 3.8
2017-Nov-16 04:30N 01°11' E 103°40'4 8.9
2017-Nov-16 04:01N 01°12' E 103°36'2 3.1
2017-Nov-16 03:30N 01°13' E 103°36'2 4.0
2017-Nov-16 03:01N 01°15' E 103°36'0 0.9
2017-Nov-16 02:30N 01°15' E 103°37'0 0.0
2017-Nov-16 01:57N 01°15' E 103°37'0 0.0
2017-Nov-16 01:30N 01°15' E 103°37'0 0.0
2017-Nov-16 00:57N 01°15' E 103°37'0 0.0
2017-Nov-16 00:27N 01°15' E 103°37'0 0.0
2017-Nov-16 00:00N 01°15' E 103°37'0 0.0
2017-Nov-15 23:27N 01°15' E 103°37'0 0.0
2017-Nov-15 22:54N 01°15' E 103°37'0 0.0
2017-Nov-15 22:30N 01°15' E 103°37'0 0.0
2017-Nov-15 21:57N 01°15' E 103°37'0 0.0
2017-Nov-15 21:30N 01°15' E 103°37'0 0.0
2017-Nov-15 20:57N 01°15' E 103°37'0 0.0
2017-Nov-15 20:30N 01°15' E 103°37'0 0.0
2017-Nov-15 19:57N 01°15' E 103°37'0 0.0
2017-Nov-15 19:27N 01°15' E 103°37'0 0.0
2017-Nov-15 19:00N 01°15' E 103°37'0 0.0
2017-Nov-15 18:30N 01°15' E 103°37'0 0.0
2017-Nov-15 17:57N 01°15' E 103°37'0 0.0
2017-Nov-15 17:30N 01°15' E 103°37'0 0.0
2017-Nov-15 16:57N 01°15' E 103°37'0 0.0
2017-Nov-15 16:30N 01°15' E 103°37'0 0.0
2017-Nov-15 15:54N 01°15' E 103°37'0 0.0
2017-Nov-15 15:27N 01°15' E 103°37'0 0.0
2017-Nov-15 15:00N 01°15' E 103°37'0 0.0
2017-Nov-15 14:30N 01°15' E 103°37'0 0.0
2017-Nov-15 13:57N 01°15' E 103°37'0 0.0
2017-Nov-15 13:30N 01°15' E 103°37'0 0.0
2017-Nov-15 12:57N 01°15' E 103°37'0 0.0
2017-Nov-15 12:30N 01°15' E 103°37'0 0.0
2017-Nov-15 11:57N 01°15' E 103°37'0 0.0
2017-Nov-15 11:30N 01°15' E 103°37'0 0.0
2017-Nov-15 10:54N 01°15' E 103°37'0 0.0
2017-Nov-15 10:30N 01°15' E 103°37'0 0.0
2017-Nov-15 09:57N 01°15' E 103°37'0 0.0
2017-Nov-15 09:30N 01°15' E 103°37'0 0.0
2017-Nov-15 08:51N 01°15' E 103°37'0 0.0
2017-Nov-15 08:27N 01°15' E 103°37'0 0.0
2017-Nov-15 07:48N 01°15' E 103°37'0 0.0
2017-Nov-15 07:30N 01°15' E 103°37'0 0.0
2017-Nov-15 06:57N 01°15' E 103°37'0 0.0
2017-Nov-15 06:30N 01°15' E 103°37'0 0.0
2017-Nov-15 05:57N 01°15' E 103°37'0 0.0
2017-Nov-15 05:27N 01°15' E 103°37'0 0.0
2017-Nov-15 04:57N 01°15' E 103°37'0 0.0
2017-Nov-15 04:27N 01°15' E 103°37'0 0.0
2017-Nov-15 03:54N 01°15' E 103°37'0 0.0
2017-Nov-15 03:12N 01°15' E 103°37'0 0.0
2017-Nov-15 02:54N 01°15' E 103°37'0 0.0
2017-Nov-15 02:30N 01°15' E 103°37'0 0.0
2017-Nov-15 01:51N 01°15' E 103°37'0 0.0
2017-Nov-15 01:30N 01°15' E 103°37'0 0.0
2017-Nov-15 00:57N 01°15' E 103°37'0 0.0
2017-Nov-15 00:30N 01°15' E 103°37'0 0.0
2017-Nov-14 23:57N 01°15' E 103°37'0 0.0
2017-Nov-14 23:27N 01°15' E 103°37'0 0.0
2017-Nov-14 22:57N 01°15' E 103°37'0 0.0
2017-Nov-14 22:30N 01°15' E 103°37'0 0.0
2017-Nov-14 21:57N 01°15' E 103°37'0 0.0
2017-Nov-14 21:30N 01°15' E 103°37'0 0.0
2017-Nov-14 20:48N 01°15' E 103°37'0 0.0
2017-Nov-14 20:21N 01°15' E 103°37'0 0.0
2017-Nov-14 19:54N 01°15' E 103°37'0 0.0
2017-Nov-14 19:30N 01°15' E 103°37'0 0.0
2017-Nov-14 18:57N 01°15' E 103°37'0 0.0
2017-Nov-14 18:30N 01°15' E 103°37'0 0.0
2017-Nov-14 17:54N 01°15' E 103°37'0 0.0
2017-Nov-14 17:30N 01°15' E 103°37'0 0.0
2017-Nov-14 16:57N 01°15' E 103°37'0 0.0
2017-Nov-14 16:30N 01°15' E 103°37'0 0.0
2017-Nov-14 15:57N 01°15' E 103°37'0 0.0
2017-Nov-14 15:30N 01°15' E 103°37'0 0.0
2017-Nov-14 14:48N 01°15' E 103°37'0 0.0
2017-Nov-14 14:27N 01°15' E 103°37'0 0.0
2017-Nov-14 13:54N 01°15' E 103°37'0 0.0
2017-Nov-14 13:30N 01°15' E 103°37'0 0.0
2017-Nov-14 12:57N 01°15' E 103°37'0 0.0
2017-Nov-14 12:30N 01°15' E 103°37'0 0.0
2017-Nov-14 11:45N 01°15' E 103°37'0 0.0
2017-Nov-14 11:27N 01°15' E 103°37'0 0.0
2017-Nov-14 11:00N 01°15' E 103°37'0 0.0
2017-Nov-14 10:30N 01°15' E 103°37'0 0.0
2017-Nov-14 09:57N 01°15' E 103°37'0 0.0
2017-Nov-14 09:30N 01°15' E 103°37'0 0.0
2017-Nov-14 08:57N 01°15' E 103°37'0 0.0
2017-Nov-14 08:30N 01°15' E 103°37'0 0.0
2017-Nov-14 07:57N 01°15' E 103°37'0 0.0
2017-Nov-14 07:30N 01°15' E 103°37'0 0.0
2017-Nov-14 06:57N 01°15' E 103°37'0 0.0
2017-Nov-14 06:27N 01°15' E 103°37'0 0.0
2017-Nov-14 06:00N 01°15' E 103°37'0 0.0
2017-Nov-14 05:30N 01°15' E 103°37'0 0.0
2017-Nov-14 04:57N 01°15' E 103°37'0 0.0
2017-Nov-14 04:24N 01°15' E 103°37'0 0.0
2017-Nov-14 03:57N 01°15' E 103°37'0 0.0
2017-Nov-14 03:27N 01°15' E 103°37'0 0.0
2017-Nov-14 02:57N 01°15' E 103°37'0 0.0
2017-Nov-14 02:30N 01°15' E 103°37'0 0.0
2017-Nov-14 01:57N 01°15' E 103°37'0 0.0
2017-Nov-14 01:30N 01°15' E 103°37'0 0.0
2017-Nov-14 00:57N 01°15' E 103°37'0 0.0
2017-Nov-14 00:30N 01°15' E 103°37'0 0.0
2017-Nov-13 23:57N 01°15' E 103°37'0 0.0
2017-Nov-13 23:30N 01°15' E 103°37'0 0.0
2017-Nov-13 22:57N 01°15' E 103°37'0 0.0
2017-Nov-13 22:27N 01°15' E 103°37'0 0.0
2017-Nov-13 21:57N 01°15' E 103°37'0 0.0
2017-Nov-13 01:57N 01°15' E 103°37'0 0.0
2017-Nov-13 01:30N 01°15' E 103°37'0 0.0
2017-Nov-13 00:57N 01°15' E 103°37'0 0.0
2017-Nov-13 00:30N 01°15' E 103°37'0 0.0
2017-Nov-12 23:57N 01°15' E 103°37'0 0.0
2017-Nov-12 23:30N 01°15' E 103°37'0 0.0
2017-Nov-12 22:57N 01°15' E 103°37'0 0.0
2017-Nov-12 22:30N 01°15' E 103°37'0 0.0
2017-Nov-12 21:57N 01°15' E 103°37'0 0.0
2017-Nov-12 21:30N 01°15' E 103°37'0 0.0
2017-Nov-12 21:00N 01°15' E 103°37'0 0.0
2017-Nov-12 20:27N 01°15' E 103°37'0 0.0
2017-Nov-12 19:57N 01°15' E 103°37'0 0.0
2017-Nov-12 19:30N 01°15' E 103°37'0 0.0
2017-Nov-12 18:57N 01°15' E 103°37'0 0.0
2017-Nov-12 18:30N 01°15' E 103°37'0 0.0
2017-Nov-12 18:00N 01°15' E 103°37'0 0.0
2017-Nov-12 17:30N 01°15' E 103°37'0 0.0
2017-Nov-12 17:00N 01°15' E 103°37'0 0.0
2017-Nov-12 16:30N 01°15' E 103°37'0 0.0
2017-Nov-12 15:57N 01°15' E 103°37'0 0.0
2017-Nov-12 15:21N 01°15' E 103°37'0 0.0
2017-Nov-12 14:51N 01°15' E 103°37'0 0.0
2017-Nov-12 14:30N 01°15' E 103°37'0 0.0
2017-Nov-12 13:57N 01°15' E 103°37'0 0.0
2017-Nov-12 13:21N 01°15' E 103°37'0 0.0
2017-Nov-12 12:57N 01°15' E 103°37'0 0.0
2017-Nov-12 12:30N 01°15' E 103°37'0 0.0
2017-Nov-12 11:48N 01°15' E 103°37'0 0.0
2017-Nov-12 11:27N 01°15' E 103°37'0 0.0
2017-Nov-12 10:57N 01°15' E 103°37'0 0.0
2017-Nov-12 10:27N 01°15' E 103°37'0 0.0
2017-Nov-12 09:57N 01°15' E 103°37'0 0.0
2017-Nov-12 09:30N 01°15' E 103°37'0 0.0
2017-Nov-12 08:57N 01°15' E 103°37'0 0.0
2017-Nov-12 08:24N 01°15' E 103°37'0 0.0
2017-Nov-12 07:57N 01°15' E 103°37'0 0.0
2017-Nov-12 07:30N 01°15' E 103°37'0 0.0
2017-Nov-12 06:57N 01°15' E 103°37'0 0.0
2017-Nov-12 06:30N 01°15' E 103°37'0 0.0
2017-Nov-12 05:57N 01°15' E 103°37'0 0.0
2017-Nov-12 05:30N 01°15' E 103°37'0 0.0
2017-Nov-12 04:54N 01°15' E 103°37'0 0.0
2017-Nov-12 04:27N 01°15' E 103°37'0 0.0
2017-Nov-12 03:57N 01°15' E 103°37'0 0.0
2017-Nov-12 03:30N 01°15' E 103°37'0 0.0
2017-Nov-12 02:57N 01°15' E 103°37'0 0.0
2017-Nov-12 02:30N 01°15' E 103°37'0 0.0
2017-Nov-12 01:57N 01°15' E 103°37'0 0.0
2017-Nov-12 01:30N 01°15' E 103°37'0 0.0
2017-Nov-12 00:57N 01°15' E 103°37'0 0.0
2017-Nov-12 00:30N 01°15' E 103°37'0 0.0
2017-Nov-12 00:00N 01°15' E 103°37'0 0.0
2017-Nov-11 23:27N 01°15' E 103°37'0 0.0
2017-Nov-11 22:57N 01°15' E 103°37'0 0.0
2017-Nov-11 22:30N 01°15' E 103°37'0 0.0
2017-Nov-11 21:57N 01°15' E 103°37'0 0.0
2017-Nov-11 21:30N 01°15' E 103°37'0 0.0
2017-Nov-11 20:57N 01°15' E 103°37'0 0.0
2017-Nov-11 20:30N 01°15' E 103°37'0 0.0
2017-Nov-11 19:57N 01°15' E 103°37'0 0.0
2017-Nov-11 19:30N 01°15' E 103°37'0 0.0
2017-Nov-11 18:57N 01°15' E 103°37'0 0.0
2017-Nov-11 18:30N 01°15' E 103°37'0 0.0
2017-Nov-11 17:57N 01°15' E 103°37'0 0.0
2017-Nov-11 17:30N 01°15' E 103°37'0 0.0
2017-Nov-11 16:45N 01°15' E 103°37'0 0.0
2017-Nov-11 16:30N 01°15' E 103°37'0 0.0
2017-Nov-11 15:57N 01°15' E 103°37'0 0.0
2017-Nov-11 15:27N 01°15' E 103°37'0 0.0
2017-Nov-11 14:57N 01°15' E 103°37'0 0.0
2017-Nov-11 14:30N 01°15' E 103°37'0 0.0
2017-Nov-11 13:51N 01°15' E 103°37'0 0.0
2017-Nov-11 13:24N 01°15' E 103°37'0 0.0
2017-Nov-11 12:57N 01°15' E 103°37'0 0.0
2017-Nov-11 12:27N 01°15' E 103°37'0 0.0
2017-Nov-11 11:57N 01°15' E 103°37'0 0.0
2017-Nov-11 11:30N 01°15' E 103°37'0 0.0
2017-Nov-11 10:57N 01°15' E 103°37'0 0.0
2017-Nov-11 10:30N 01°15' E 103°37'0 0.0
2017-Nov-11 09:57N 01°15' E 103°37'0 0.0
2017-Nov-11 09:27N 01°15' E 103°37'0 0.0
2017-Nov-11 08:57N 01°15' E 103°37'0 0.0
2017-Nov-11 08:30N 01°15' E 103°37'0 0.0
2017-Nov-11 07:57N 01°15' E 103°37'0 0.0
2017-Nov-11 07:27N 01°15' E 103°37'0 0.0
2017-Nov-11 06:57N 01°15' E 103°37'0 0.0
2017-Nov-11 06:30N 01°15' E 103°37'0 0.0
2017-Nov-11 05:57N 01°15' E 103°37'0 0.0
2017-Nov-11 05:30N 01°15' E 103°37'0 0.0
2017-Nov-11 04:57N 01°15' E 103°37'0 0.0
2017-Nov-11 04:30N 01°15' E 103°37'0 0.0
2017-Nov-11 04:00N 01°15' E 103°37'0 0.0
2017-Nov-11 03:27N 01°15' E 103°37'0 0.0
2017-Nov-11 02:57N 01°15' E 103°37'0 0.0
2017-Nov-11 02:30N 01°15' E 103°37'0 0.0
2017-Nov-11 01:57N 01°15' E 103°37'0 0.0
2017-Nov-11 01:27N 01°15' E 103°37'0 0.0
2017-Nov-11 00:57N 01°15' E 103°37'0 0.0
2017-Nov-11 00:30N 01°15' E 103°37'0 0.0
2017-Nov-10 23:57N 01°15' E 103°37'0 0.0
2017-Nov-10 23:30N 01°15' E 103°37'0 0.0
2017-Nov-10 22:57N 01°15' E 103°37'0 0.0
2017-Nov-10 22:27N 01°15' E 103°37'0 0.0
2017-Nov-10 22:00N 01°15' E 103°37'0 0.0
2017-Nov-10 21:30N 01°15' E 103°37'0 0.0
2017-Nov-10 20:57N 01°15' E 103°37'0 0.0
2017-Nov-10 20:30N 01°15' E 103°37'0 0.0
2017-Nov-10 19:54N 01°15' E 103°37'0 0.0
2017-Nov-10 19:30N 01°15' E 103°37'0 0.0
2017-Nov-10 19:00N 01°15' E 103°37'0 0.0
2017-Nov-10 18:27N 01°15' E 103°37'0 0.0
2017-Nov-10 17:54N 01°15' E 103°37'0 0.0
2017-Nov-10 17:30N 01°15' E 103°37'0 0.0
2017-Nov-10 16:57N 01°15' E 103°37'0 0.0
2017-Nov-10 16:09N 01°15' E 103°37'0 0.0
2017-Nov-10 16:00N 01°15' E 103°37'0 0.0
2017-Nov-10 15:27N 01°15' E 103°37'0 0.0
2017-Nov-10 14:57N 01°15' E 103°37'0 0.0
2017-Nov-10 14:30N 01°15' E 103°37'0 0.0
2017-Nov-10 13:57N 01°15' E 103°37'0 0.0
2017-Nov-10 13:21N 01°15' E 103°37'0 0.0
2017-Nov-10 13:00N 01°15' E 103°37'0 0.0
2017-Nov-10 12:21N 01°15' E 103°37'0 0.0
2017-Nov-10 11:51N 01°15' E 103°37'0 0.0
2017-Nov-10 11:27N 01°15' E 103°37'0 0.0
2017-Nov-10 10:51N 01°15' E 103°37'0 0.0
2017-Nov-10 10:15N 01°15' E 103°37'0 0.0
2017-Nov-10 09:57N 01°15' E 103°37'0 0.0
2017-Nov-10 09:15N 01°15' E 103°37'0 0.0
2017-Nov-10 08:57N 01°15' E 103°37'0 0.0
2017-Nov-10 08:27N 01°15' E 103°37'0 0.0
2017-Nov-10 07:57N 01°15' E 103°37'0 0.0
2017-Nov-10 07:30N 01°15' E 103°37'0 0.0
2017-Nov-10 06:51N 01°15' E 103°37'0 0.0
2017-Nov-10 06:24N 01°15' E 103°37'0 0.0
2017-Nov-10 05:48N 01°15' E 103°37'0 0.0
2017-Nov-10 05:27N 01°15' E 103°37'0 0.0
2017-Nov-10 04:57N 01°15' E 103°37'0 0.0
2017-Nov-10 04:30N 01°15' E 103°37'0 0.0
2017-Nov-10 03:57N 01°15' E 103°37'0 0.0
2017-Nov-10 03:30N 01°15' E 103°37'0 0.0
2017-Nov-10 02:51N 01°15' E 103°37'0 0.0
2017-Nov-10 02:27N 01°15' E 103°37'0 0.0
2017-Nov-10 01:57N 01°15' E 103°37'0 0.0
2017-Nov-10 01:21N 01°15' E 103°37'0 0.0
2017-Nov-10 00:57N 01°15' E 103°37'0 0.0
2017-Nov-10 00:27N 01°15' E 103°37'0 0.0
2017-Nov-09 23:51N 01°15' E 103°37'0 0.0
2017-Nov-09 23:30N 01°15' E 103°37'0 0.0
2017-Nov-09 22:57N 01°15' E 103°37'0 0.0
2017-Nov-09 22:30N 01°15' E 103°37'0 0.0
2017-Nov-09 22:00N 01°15' E 103°37'0 0.0
2017-Nov-09 21:30N 01°15' E 103°37'0 0.0
2017-Nov-09 20:57N 01°15' E 103°37'0 0.0
2017-Nov-09 20:30N 01°15' E 103°37'0 0.0
2017-Nov-09 19:57N 01°15' E 103°37'0 0.0
2017-Nov-09 19:30N 01°15' E 103°37'0 0.0
2017-Nov-09 18:57N 01°15' E 103°37'0 0.0
2017-Nov-09 18:30N 01°15' E 103°37'0 0.0
2017-Nov-09 17:57N 01°15' E 103°37'0 0.0
2017-Nov-09 17:30N 01°15' E 103°37'0 0.0
2017-Nov-09 16:57N 01°15' E 103°37'0 0.0
2017-Nov-09 16:30N 01°15' E 103°37'0 0.0
2017-Nov-09 16:00N 01°15' E 103°37'0 0.0
2017-Nov-09 15:30N 01°15' E 103°37'0 0.0
2017-Nov-09 14:57N 01°15' E 103°37'0 0.0
2017-Nov-09 14:30N 01°15' E 103°37'0 0.0
2017-Nov-09 13:57N 01°15' E 103°37'0 0.0
2017-Nov-09 13:30N 01°15' E 103°37'0 0.0
2017-Nov-09 12:57N 01°15' E 103°37'0 0.0
2017-Nov-09 12:30N 01°15' E 103°37'0 0.0
2017-Nov-09 11:57N 01°15' E 103°37'0 0.0
2017-Nov-09 11:30N 01°15' E 103°37'0 0.0
2017-Nov-09 10:57N 01°15' E 103°37'0 0.0
2017-Nov-09 10:24N 01°15' E 103°37'0 0.0
2017-Nov-09 09:57N 01°15' E 103°37'0 0.0
2017-Nov-09 09:24N 01°15' E 103°37'0 0.0
2017-Nov-09 09:00N 01°15' E 103°37'0 0.0
2017-Nov-09 08:30N 01°15' E 103°37'0 0.0
2017-Nov-09 07:57N 01°15' E 103°37'0 0.0
2017-Nov-09 07:21N 01°15' E 103°37'0 0.0
2017-Nov-09 06:57N 01°15' E 103°37'0 0.0
2017-Nov-09 06:30N 01°15' E 103°37'0 0.0
2017-Nov-09 05:57N 01°15' E 103°37'0 0.0
2017-Nov-09 05:30N 01°15' E 103°37'0 0.0
2017-Nov-09 04:57N 01°15' E 103°37'0 0.0
2017-Nov-09 04:27N 01°15' E 103°37'0 0.0
2017-Nov-09 03:57N 01°15' E 103°37'0 0.0
2017-Nov-09 03:27N 01°15' E 103°37'0 0.0
2017-Nov-09 02:51N 01°15' E 103°37'0 0.0
2017-Nov-09 02:30N 01°15' E 103°37'0 0.0
2017-Nov-09 01:57N 01°15' E 103°37'0 0.0
2017-Nov-09 01:30N 01°15' E 103°37'0 0.0
2017-Nov-09 00:57N 01°15' E 103°37'0 0.0
2017-Nov-09 00:30N 01°15' E 103°37'0 0.0
2017-Nov-08 23:57N 01°15' E 103°37'0 0.0
2017-Nov-08 23:30N 01°15' E 103°37'0 0.0
2017-Nov-08 22:57N 01°15' E 103°37'0 0.0
2017-Nov-08 22:30N 01°15' E 103°37'0 0.0
2017-Nov-08 21:57N 01°15' E 103°37'0 0.0
2017-Nov-08 21:30N 01°15' E 103°37'0 0.0
2017-Nov-08 20:57N 01°15' E 103°37'0 0.0
2017-Nov-08 20:30N 01°15' E 103°37'0 0.0
2017-Nov-08 20:00N 01°15' E 103°37'0 0.0
2017-Nov-08 19:30N 01°15' E 103°37'0 0.0
2017-Nov-08 18:57N 01°15' E 103°37'0 0.0
2017-Nov-08 18:30N 01°15' E 103°37'0 0.0
2017-Nov-08 17:57N 01°15' E 103°37'0 0.0
2017-Nov-08 17:30N 01°15' E 103°37'0 0.0
2017-Nov-08 16:57N 01°15' E 103°37'0 0.0
2017-Nov-08 16:30N 01°15' E 103°37'0 0.0
2017-Nov-08 15:54N 01°15' E 103°37'0 0.0
2017-Nov-08 15:27N 01°15' E 103°37'0 0.0
2017-Nov-08 14:57N 01°15' E 103°37'0 0.0
2017-Nov-08 14:30N 01°15' E 103°37'0 0.0
2017-Nov-08 13:57N 01°15' E 103°37'0 0.0
2017-Nov-08 13:30N 01°15' E 103°37'0 0.0
2017-Nov-08 12:54N 01°15' E 103°37'0 0.0
2017-Nov-08 12:27N 01°15' E 103°37'0 0.0
2017-Nov-08 12:00N 01°15' E 103°37'0 0.0
2017-Nov-08 11:27N 01°15' E 103°37'0 0.0
2017-Nov-08 10:57N 01°15' E 103°37'0 0.0
2017-Nov-08 10:27N 01°15' E 103°37'0 0.0
2017-Nov-08 09:57N 01°15' E 103°37'0 0.0
2017-Nov-08 09:30N 01°15' E 103°37'0 0.0
2017-Nov-08 08:54N 01°15' E 103°37'0 0.0
2017-Nov-08 08:30N 01°15' E 103°37'0 0.0
2017-Nov-08 07:57N 01°15' E 103°37'0 0.0
2017-Nov-08 07:30N 01°15' E 103°37'0 0.0
2017-Nov-08 06:57N 01°15' E 103°37'0 0.0
2017-Nov-08 06:30N 01°15' E 103°37'0 0.0
2017-Nov-08 05:57N 01°15' E 103°37'0 0.0
2017-Nov-08 05:30N 01°15' E 103°37'0 0.0
2017-Nov-08 04:57N 01°15' E 103°37'0 0.0
2017-Nov-08 04:27N 01°15' E 103°37'0 0.0
2017-Nov-08 03:54N 01°15' E 103°37'0 0.0
2017-Nov-08 03:30N 01°15' E 103°37'0 0.0
2017-Nov-08 02:57N 01°15' E 103°37'  
Track history (hours):
 
Tides and Currents Weather Stations Pressure Air Temp Water Temp Dewpoint Dewpoint Depression Visibility Wind Speed Wind Dir Waves Ship Positions

Al Kharj

Last reported at 2017-Nov-18 02:43 UTC. Time now 2017-Nov-25 02:14 UTC.
Position N 01°18' E 103°19'.

Length 306 m; draft 13.2 m.

Type: Cargo ship. MMSI: 636017671.

Date/timePositionNaut miles runAvg speedWind from/ knotsBaromVisibWave heightAir tempDewpointWater temp
2017-Nov-18 02:43N 01°18' E 103°19'313.2
2017-Nov-18 02:28N 01°16' E 103°22'916.0
2017-Nov-18 01:53N 01°12' E 103°31'615.1
2017-Nov-18 01:30N 01°12' E 103°36'4 8.5
2017-Nov-18 01:00N 01°13' E 103°40'612.2
2017-Nov-18 00:31N 01°16' E 103°45'1 2.2
2017-Nov-18 00:00N 01°16' E 103°47'0 0.2
2017-Nov-17 23:30N 01°16' E 103°46'0 0.0
2017-Nov-17 23:00N 01°16' E 103°46'0 0.0
2017-Nov-17 22:30N 01°16' E 103°46'0 0.0
2017-Nov-17 22:00N 01°16' E 103°46'0 0.0
2017-Nov-17 21:30N 01°16' E 103°46'0 0.0
2017-Nov-17 21:00N 01°16' E 103°46'0 0.0
2017-Nov-17 20:30N 01°16' E 103°46'0 0.0
2017-Nov-17 20:00N 01°16' E 103°46'0 0.0
2017-Nov-17 19:30N 01°16' E 103°46'0 0.0
2017-Nov-17 19:00N 01°16' E 103°46'0 0.0
2017-Nov-17 18:30N 01°16' E 103°46'0 0.0
2017-Nov-17 18:00N 01°16' E 103°46'0 0.0
2017-Nov-17 17:30N 01°16' E 103°46'0 0.0
2017-Nov-17 17:00N 01°16' E 103°46'0 0.0
2017-Nov-17 16:30N 01°16' E 103°46'0 0.0
2017-Nov-17 16:00N 01°16' E 103°46'0 0.0
2017-Nov-17 15:30N 01°16' E 103°46'0 0.0
2017-Nov-17 15:00N 01°16' E 103°46'0 0.0
2017-Nov-17 14:30N 01°16' E 103°46'0 0.0
2017-Nov-17 14:00N 01°16' E 103°46'0 0.0
2017-Nov-17 13:30N 01°16' E 103°46'0 0.0
2017-Nov-17 13:00N 01°16' E 103°46'0 0.0
2017-Nov-17 12:30N 01°16' E 103°46'0 0.0
2017-Nov-17 12:00N 01°16' E 103°46'0 0.0
2017-Nov-17 11:30N 01°16' E 103°46'0 0.0
2017-Nov-17 11:00N 01°16' E 103°46'0 0.0
2017-Nov-17 10:30N 01°16' E 103°46'0 0.0
2017-Nov-17 09:57N 01°16' E 103°46'0 0.0
2017-Nov-17 09:30N 01°16' E 103°46'0 0.0
2017-Nov-17 08:57N 01°16' E 103°46'0 0.0
2017-Nov-17 08:30N 01°16' E 103°46'0 0.0
2017-Nov-17 08:00N 01°16' E 103°46'0 0.0
2017-Nov-17 07:30N 01°16' E 103°46'0 0.0
2017-Nov-17 07:00N 01°16' E 103°46'0 0.0
2017-Nov-17 06:30N 01°16' E 103°46'0 0.0
2017-Nov-17 06:00N 01°16' E 103°46'0 0.0
2017-Nov-17 05:30N 01°16' E 103°46'0 0.0
2017-Nov-17 05:00N 01°16' E 103°46'0 0.0
2017-Nov-17 04:30N 01°16' E 103°46'0 0.0
2017-Nov-17 04:00N 01°16' E 103°46'0 0.0
2017-Nov-17 03:30N 01°16' E 103°46'0 0.0
2017-Nov-17 03:00N 01°16' E 103°46'1 1.1
2017-Nov-17 02:30N 01°16' E 103°47'2 3.1
2017-Nov-17 02:00N 01°17' E 103°46'1 1.2
2017-Nov-17 01:30N 01°17' E 103°46'0 0.0
2017-Nov-17 01:00N 01°17' E 103°46'0 0.0
2017-Nov-17 00:30N 01°17' E 103°46'0 0.0
2017-Nov-17 00:00N 01°17' E 103°46'0 0.0
2017-Nov-16 23:30N 01°17' E 103°46'0 0.0
2017-Nov-16 23:00N 01°17' E 103°46'0 0.0
2017-Nov-16 22:30N 01°17' E 103°46'0 0.0
2017-Nov-16 22:00N 01°17' E 103°46'0 0.0
2017-Nov-16 21:30N 01°17' E 103°46'0 0.0
2017-Nov-16 21:00N 01°17' E 103°46'0 0.0
2017-Nov-16 20:30N 01°17' E 103°46'0 0.0
2017-Nov-16 20:00N 01°17' E 103°46'0 0.0
2017-Nov-16 19:30N 01°17' E 103°46'0 0.0
2017-Nov-16 19:00N 01°17' E 103°46'0 0.0
2017-Nov-16 18:30N 01°17' E 103°46'0 0.0
2017-Nov-16 18:00N 01°17' E 103°46'0 0.0
2017-Nov-16 17:30N 01°17' E 103°46'0 0.0
2017-Nov-16 17:00N 01°17' E 103°46'0 0.0
2017-Nov-16 16:30N 01°17' E 103°46'0 0.0
2017-Nov-16 16:00N 01°17' E 103°46'0 0.1
2017-Nov-16 15:30N 01°17' E 103°46'1 1.9
2017-Nov-16 15:01N 01°17' E 103°45'1 2.2
2017-Nov-16 14:30N 01°16' E 103°45'2 4.6
2017-Nov-16 14:01N 01°15' E 103°44'5 9.6
2017-Nov-16 13:30N 01°11' E 103°40'2 4.1
2017-Nov-16 12:59N 01°10' E 103°42'0 0.2
2017-Nov-16 12:29N 01°10' E 103°42'0 0.3
2017-Nov-16 11:59N 01°10' E 103°42'0 0.0
2017-Nov-16 11:29N 01°10' E 103°42'0 0.1
2017-Nov-16 10:59N 01°11' E 103°42'0 0.2
2017-Nov-16 10:26N 01°11' E 103°42'0 0.0
2017-Nov-16 09:56N 01°11' E 103°42'0 0.1
2017-Nov-16 09:29N 01°11' E 103°42'0 0.0
2017-Nov-16 08:53N 01°11' E 103°42'0 0.2
2017-Nov-16 08:29N 01°11' E 103°42'0 0.1
2017-Nov-16 07:59N 01°11' E 103°42'0 0.0
2017-Nov-16 07:26N 01°11' E 103°42'0 0.0
2017-Nov-16 06:56N 01°11' E 103°42'0 0.0
2017-Nov-16 06:29N 01°11' E 103°42'0 0.2
2017-Nov-16 05:59N 01°10' E 103°43'0 0.1
2017-Nov-16 05:29N 01°11' E 103°43'0 0.5
2017-Nov-16 04:59N 01°11' E 103°42'2 3.8
2017-Nov-16 04:30N 01°11' E 103°40'4 8.9
2017-Nov-16 04:01N 01°12' E 103°36'2 3.1
2017-Nov-16 03:30N 01°13' E 103°36'2 4.0
2017-Nov-16 03:01N 01°15' E 103°36'0 0.9
2017-Nov-16 02:30N 01°15' E 103°37'0 0.0
2017-Nov-16 01:57N 01°15' E 103°37'0 0.0
2017-Nov-16 01:30N 01°15' E 103°37'0 0.0
2017-Nov-16 00:57N 01°15' E 103°37'0 0.0
2017-Nov-16 00:27N 01°15' E 103°37'0 0.0
2017-Nov-16 00:00N 01°15' E 103°37'0 0.0
2017-Nov-15 23:27N 01°15' E 103°37'0 0.0
2017-Nov-15 22:54N 01°15' E 103°37'0 0.0
2017-Nov-15 22:30N 01°15' E 103°37'0 0.0
2017-Nov-15 21:57N 01°15' E 103°37'0 0.0
2017-Nov-15 21:30N 01°15' E 103°37'0 0.0
2017-Nov-15 20:57N 01°15' E 103°37'0 0.0
2017-Nov-15 20:30N 01°15' E 103°37'0 0.0
2017-Nov-15 19:57N 01°15' E 103°37'0 0.0
2017-Nov-15 19:27N 01°15' E 103°37'0 0.0
2017-Nov-15 19:00N 01°15' E 103°37'0 0.0
2017-Nov-15 18:30N 01°15' E 103°37'0 0.0
2017-Nov-15 17:57N 01°15' E 103°37'0 0.0
2017-Nov-15 17:30N 01°15' E 103°37'0 0.0
2017-Nov-15 16:57N 01°15' E 103°37'0 0.0
2017-Nov-15 16:30N 01°15' E 103°37'0 0.0
2017-Nov-15 15:54N 01°15' E 103°37'0 0.0
2017-Nov-15 15:27N 01°15' E 103°37'0 0.0
2017-Nov-15 15:00N 01°15' E 103°37'0 0.0
2017-Nov-15 14:30N 01°15' E 103°37'0 0.0
2017-Nov-15 13:57N 01°15' E 103°37'0 0.0
2017-Nov-15 13:30N 01°15' E 103°37'0 0.0
2017-Nov-15 12:57N 01°15' E 103°37'0 0.0
2017-Nov-15 12:30N 01°15' E 103°37'0 0.0
2017-Nov-15 11:57N 01°15' E 103°37'0 0.0
2017-Nov-15 11:30N 01°15' E 103°37'0 0.0
2017-Nov-15 10:54N 01°15' E 103°37'0 0.0
2017-Nov-15 10:30N 01°15' E 103°37'0 0.0
2017-Nov-15 09:57N 01°15' E 103°37'0 0.0
2017-Nov-15 09:30N 01°15' E 103°37'0 0.0
2017-Nov-15 08:51N 01°15' E 103°37'0 0.0
2017-Nov-15 08:27N 01°15' E 103°37'0 0.0
2017-Nov-15 07:48N 01°15' E 103°37'0 0.0
2017-Nov-15 07:30N 01°15' E 103°37'0 0.0
2017-Nov-15 06:57N 01°15' E 103°37'0 0.0
2017-Nov-15 06:30N 01°15' E 103°37'0 0.0
2017-Nov-15 05:57N 01°15' E 103°37'0 0.0
2017-Nov-15 05:27N 01°15' E 103°37'0 0.0
2017-Nov-15 04:57N 01°15' E 103°37'0 0.0
2017-Nov-15 04:27N 01°15' E 103°37'0 0.0
2017-Nov-15 03:54N 01°15' E 103°37'0 0.0
2017-Nov-15 03:12N 01°15' E 103°37'0 0.0
2017-Nov-15 02:54N 01°15' E 103°37'0 0.0
2017-Nov-15 02:30N 01°15' E 103°37'0 0.0
2017-Nov-15 01:51N 01°15' E 103°37'0 0.0
2017-Nov-15 01:30N 01°15' E 103°37'0 0.0
2017-Nov-15 00:57N 01°15' E 103°37'0 0.0
2017-Nov-15 00:30N 01°15' E 103°37'0 0.0
2017-Nov-14 23:57N 01°15' E 103°37'0 0.0
2017-Nov-14 23:27N 01°15' E 103°37'0 0.0
2017-Nov-14 22:57N 01°15' E 103°37'0 0.0
2017-Nov-14 22:30N 01°15' E 103°37'0 0.0
2017-Nov-14 21:57N 01°15' E 103°37'0 0.0
2017-Nov-14 21:30N 01°15' E 103°37'0 0.0
2017-Nov-14 20:48N 01°15' E 103°37'0 0.0
2017-Nov-14 20:21N 01°15' E 103°37'0 0.0
2017-Nov-14 19:54N 01°15' E 103°37'0 0.0
2017-Nov-14 19:30N 01°15' E 103°37'0 0.0
2017-Nov-14 18:57N 01°15' E 103°37'0 0.0
2017-Nov-14 18:30N 01°15' E 103°37'0 0.0
2017-Nov-14 17:54N 01°15' E 103°37'0 0.0
2017-Nov-14 17:30N 01°15' E 103°37'0 0.0
2017-Nov-14 16:57N 01°15' E 103°37'0 0.0
2017-Nov-14 16:30N 01°15' E 103°37'0 0.0
2017-Nov-14 15:57N 01°15' E 103°37'0 0.0
2017-Nov-14 15:30N 01°15' E 103°37'0 0.0
2017-Nov-14 14:48N 01°15' E 103°37'0 0.0
2017-Nov-14 14:27N 01°15' E 103°37'0 0.0
2017-Nov-14 13:54N 01°15' E 103°37'0 0.0
2017-Nov-14 13:30N 01°15' E 103°37'0 0.0
2017-Nov-14 12:57N 01°15' E 103°37'0 0.0
2017-Nov-14 12:30N 01°15' E 103°37'0 0.0
2017-Nov-14 11:45N 01°15' E 103°37'0 0.0
2017-Nov-14 11:27N 01°15' E 103°37'0 0.0
2017-Nov-14 11:00N 01°15' E 103°37'0 0.0
2017-Nov-14 10:30N 01°15' E 103°37'0 0.0
2017-Nov-14 09:57N 01°15' E 103°37'0 0.0
2017-Nov-14 09:30N 01°15' E 103°37'0 0.0
2017-Nov-14 08:57N 01°15' E 103°37'0 0.0
2017-Nov-14 08:30N 01°15' E 103°37'0 0.0
2017-Nov-14 07:57N 01°15' E 103°37'0 0.0
2017-Nov-14 07:30N 01°15' E 103°37'0 0.0
2017-Nov-14 06:57N 01°15' E 103°37'0 0.0
2017-Nov-14 06:27N 01°15' E 103°37'0 0.0
2017-Nov-14 06:00N 01°15' E 103°37'0 0.0
2017-Nov-14 05:30N 01°15' E 103°37'0 0.0
2017-Nov-14 04:57N 01°15' E 103°37'0 0.0
2017-Nov-14 04:24N 01°15' E 103°37'0 0.0
2017-Nov-14 03:57N 01°15' E 103°37'0 0.0
2017-Nov-14 03:27N 01°15' E 103°37'0 0.0
2017-Nov-14 02:57N 01°15' E 103°37'0 0.0
2017-Nov-14 02:30N 01°15' E 103°37'0 0.0
2017-Nov-14 01:57N 01°15' E 103°37'0 0.0
2017-Nov-14 01:30N 01°15' E 103°37'0 0.0
2017-Nov-14 00:57N 01°15' E 103°37'0 0.0
2017-Nov-14 00:30N 01°15' E 103°37'0 0.0
2017-Nov-13 23:57N 01°15' E 103°37'0 0.0
2017-Nov-13 23:30N 01°15' E 103°37'0 0.0
2017-Nov-13 22:57N 01°15' E 103°37'0 0.0
2017-Nov-13 22:27N 01°15' E 103°37'0 0.0
2017-Nov-13 21:57N 01°15' E 103°37'0 0.0
2017-Nov-13 01:57N 01°15' E 103°37'0 0.0
2017-Nov-13 01:30N 01°15' E 103°37'0 0.0
2017-Nov-13 00:57N 01°15' E 103°37'0 0.0
2017-Nov-13 00:30N 01°15' E 103°37'0 0.0
2017-Nov-12 23:57N 01°15' E 103°37'0 0.0
2017-Nov-12 23:30N 01°15' E 103°37'0 0.0
2017-Nov-12 22:57N 01°15' E 103°37'0 0.0
2017-Nov-12 22:30N 01°15' E 103°37'0 0.0
2017-Nov-12 21:57N 01°15' E 103°37'0 0.0
2017-Nov-12 21:30N 01°15' E 103°37'0 0.0
2017-Nov-12 21:00N 01°15' E 103°37'0 0.0
2017-Nov-12 20:27N 01°15' E 103°37'0 0.0
2017-Nov-12 19:57N 01°15' E 103°37'0 0.0
2017-Nov-12 19:30N 01°15' E 103°37'0 0.0
2017-Nov-12 18:57N 01°15' E 103°37'0 0.0
2017-Nov-12 18:30N 01°15' E 103°37'0 0.0
2017-Nov-12 18:00N 01°15' E 103°37'0 0.0
2017-Nov-12 17:30N 01°15' E 103°37'0 0.0
2017-Nov-12 17:00N 01°15' E 103°37'0 0.0
2017-Nov-12 16:30N 01°15' E 103°37'0 0.0
2017-Nov-12 15:57N 01°15' E 103°37'0 0.0
2017-Nov-12 15:21N 01°15' E 103°37'0 0.0
2017-Nov-12 14:51N 01°15' E 103°37'0 0.0
2017-Nov-12 14:30N 01°15' E 103°37'0 0.0
2017-Nov-12 13:57N 01°15' E 103°37'0 0.0
2017-Nov-12 13:21N 01°15' E 103°37'0 0.0
2017-Nov-12 12:57N 01°15' E 103°37'0 0.0
2017-Nov-12 12:30N 01°15' E 103°37'0 0.0
2017-Nov-12 11:48N 01°15' E 103°37'0 0.0
2017-Nov-12 11:27N 01°15' E 103°37'0 0.0
2017-Nov-12 10:57N 01°15' E 103°37'0 0.0
2017-Nov-12 10:27N 01°15' E 103°37'0 0.0
2017-Nov-12 09:57N 01°15' E 103°37'0 0.0
2017-Nov-12 09:30N 01°15' E 103°37'0 0.0
2017-Nov-12 08:57N 01°15' E 103°37'0 0.0
2017-Nov-12 08:24N 01°15' E 103°37'0 0.0
2017-Nov-12 07:57N 01°15' E 103°37'0 0.0
2017-Nov-12 07:30N 01°15' E 103°37'0 0.0
2017-Nov-12 06:57N 01°15' E 103°37'0 0.0
2017-Nov-12 06:30N 01°15' E 103°37'0 0.0
2017-Nov-12 05:57N 01°15' E 103°37'0 0.0
2017-Nov-12 05:30N 01°15' E 103°37'0 0.0
2017-Nov-12 04:54N 01°15' E 103°37'0 0.0
2017-Nov-12 04:27N 01°15' E 103°37'0 0.0
2017-Nov-12 03:57N 01°15' E 103°37'0 0.0
2017-Nov-12 03:30N 01°15' E 103°37'0 0.0
2017-Nov-12 02:57N 01°15' E 103°37'0 0.0
2017-Nov-12 02:30N 01°15' E 103°37'0 0.0
2017-Nov-12 01:57N 01°15' E 103°37'0 0.0
2017-Nov-12 01:30N 01°15' E 103°37'0 0.0
2017-Nov-12 00:57N 01°15' E 103°37'0 0.0
2017-Nov-12 00:30N 01°15' E 103°37'0 0.0
2017-Nov-12 00:00N 01°15' E 103°37'0 0.0
2017-Nov-11 23:27N 01°15' E 103°37'0 0.0
2017-Nov-11 22:57N 01°15' E 103°37'0 0.0
2017-Nov-11 22:30N 01°15' E 103°37'0 0.0
2017-Nov-11 21:57N 01°15' E 103°37'0 0.0
2017-Nov-11 21:30N 01°15' E 103°37'0 0.0
2017-Nov-11 20:57N 01°15' E 103°37'0 0.0
2017-Nov-11 20:30N 01°15' E 103°37'0 0.0
2017-Nov-11 19:57N 01°15' E 103°37'0 0.0
2017-Nov-11 19:30N 01°15' E 103°37'0 0.0
2017-Nov-11 18:57N 01°15' E 103°37'0 0.0
2017-Nov-11 18:30N 01°15' E 103°37'0 0.0
2017-Nov-11 17:57N 01°15' E 103°37'0 0.0
2017-Nov-11 17:30N 01°15' E 103°37'0 0.0
2017-Nov-11 16:45N 01°15' E 103°37'0 0.0
2017-Nov-11 16:30N 01°15' E 103°37'0 0.0
2017-Nov-11 15:57N 01°15' E 103°37'0 0.0
2017-Nov-11 15:27N 01°15' E 103°37'0 0.0
2017-Nov-11 14:57N 01°15' E 103°37'0 0.0
2017-Nov-11 14:30N 01°15' E 103°37'0 0.0
2017-Nov-11 13:51N 01°15' E 103°37'0 0.0
2017-Nov-11 13:24N 01°15' E 103°37'0 0.0
2017-Nov-11 12:57N 01°15' E 103°37'0 0.0
2017-Nov-11 12:27N 01°15' E 103°37'0 0.0
2017-Nov-11 11:57N 01°15' E 103°37'0 0.0
2017-Nov-11 11:30N 01°15' E 103°37'0 0.0
2017-Nov-11 10:57N 01°15' E 103°37'0 0.0
2017-Nov-11 10:30N 01°15' E 103°37'0 0.0
2017-Nov-11 09:57N 01°15' E 103°37'0 0.0
2017-Nov-11 09:27N 01°15' E 103°37'0 0.0
2017-Nov-11 08:57N 01°15' E 103°37'0 0.0
2017-Nov-11 08:30N 01°15' E 103°37'0 0.0
2017-Nov-11 07:57N 01°15' E 103°37'0 0.0
2017-Nov-11 07:27N 01°15' E 103°37'0 0.0
2017-Nov-11 06:57N 01°15' E 103°37'0 0.0
2017-Nov-11 06:30N 01°15' E 103°37'0 0.0
2017-Nov-11 05:57N 01°15' E 103°37'0 0.0
2017-Nov-11 05:30N 01°15' E 103°37'0 0.0
2017-Nov-11 04:57N 01°15' E 103°37'0 0.0
2017-Nov-11 04:30N 01°15' E 103°37'0 0.0
2017-Nov-11 04:00N 01°15' E 103°37'0 0.0
2017-Nov-11 03:27N 01°15' E 103°37'0 0.0
2017-Nov-11 02:57N 01°15' E 103°37'0 0.0
2017-Nov-11 02:30N 01°15' E 103°37'0 0.0
2017-Nov-11 01:57N 01°15' E 103°37'0 0.0
2017-Nov-11 01:27N 01°15' E 103°37'0 0.0
2017-Nov-11 00:57N 01°15' E 103°37'0 0.0
2017-Nov-11 00:30N 01°15' E 103°37'0 0.0
2017-Nov-10 23:57N 01°15' E 103°37'0 0.0
2017-Nov-10 23:30N 01°15' E 103°37'0 0.0
2017-Nov-10 22:57N 01°15' E 103°37'0 0.0
2017-Nov-10 22:27N 01°15' E 103°37'0 0.0
2017-Nov-10 22:00N 01°15' E 103°37'0 0.0
2017-Nov-10 21:30N 01°15' E 103°37'0 0.0
2017-Nov-10 20:57N 01°15' E 103°37'0 0.0
2017-Nov-10 20:30N 01°15' E 103°37'0 0.0
2017-Nov-10 19:54N 01°15' E 103°37'0 0.0
2017-Nov-10 19:30N 01°15' E 103°37'0 0.0
2017-Nov-10 19:00N 01°15' E 103°37'0 0.0
2017-Nov-10 18:27N 01°15' E 103°37'0 0.0
2017-Nov-10 17:54N 01°15' E 103°37'0 0.0
2017-Nov-10 17:30N 01°15' E 103°37'0 0.0
2017-Nov-10 16:57N 01°15' E 103°37'0 0.0
2017-Nov-10 16:09N 01°15' E 103°37'0 0.0
2017-Nov-10 16:00N 01°15' E 103°37'0 0.0
2017-Nov-10 15:27N 01°15' E 103°37'0 0.0
2017-Nov-10 14:57N 01°15' E 103°37'0 0.0
2017-Nov-10 14:30N 01°15' E 103°37'0 0.0
2017-Nov-10 13:57N 01°15' E 103°37'0 0.0
2017-Nov-10 13:21N 01°15' E 103°37'0 0.0
2017-Nov-10 13:00N 01°15' E 103°37'0 0.0
2017-Nov-10 12:21N 01°15' E 103°37'0 0.0
2017-Nov-10 11:51N 01°15' E 103°37'0 0.0
2017-Nov-10 11:27N 01°15' E 103°37'0 0.0
2017-Nov-10 10:51N 01°15' E 103°37'0 0.0
2017-Nov-10 10:15N 01°15' E 103°37'0 0.0
2017-Nov-10 09:57N 01°15' E 103°37'0 0.0
2017-Nov-10 09:15N 01°15' E 103°37'0 0.0
2017-Nov-10 08:57N 01°15' E 103°37'0 0.0
2017-Nov-10 08:27N 01°15' E 103°37'0 0.0
2017-Nov-10 07:57N 01°15' E 103°37'0 0.0
2017-Nov-10 07:30N 01°15' E 103°37'0 0.0
2017-Nov-10 06:51N 01°15' E 103°37'0 0.0
2017-Nov-10 06:24N 01°15' E 103°37'0 0.0
2017-Nov-10 05:48N 01°15' E 103°37'0 0.0
2017-Nov-10 05:27N 01°15' E 103°37'0 0.0
2017-Nov-10 04:57N 01°15' E 103°37'0 0.0
2017-Nov-10 04:30N 01°15' E 103°37'0 0.0
2017-Nov-10 03:57N 01°15' E 103°37'0 0.0
2017-Nov-10 03:30N 01°15' E 103°37'0 0.0
2017-Nov-10 02:51N 01°15' E 103°37'0 0.0
2017-Nov-10 02:27N 01°15' E 103°37'0 0.0
2017-Nov-10 01:57N 01°15' E 103°37'0 0.0
2017-Nov-10 01:21N 01°15' E 103°37'0 0.0
2017-Nov-10 00:57N 01°15' E 103°37'0 0.0
2017-Nov-10 00:27N 01°15' E 103°37'0 0.0
2017-Nov-09 23:51N 01°15' E 103°37'0 0.0
2017-Nov-09 23:30N 01°15' E 103°37'0 0.0
2017-Nov-09 22:57N 01°15' E 103°37'0 0.0
2017-Nov-09 22:30N 01°15' E 103°37'0 0.0
2017-Nov-09 22:00N 01°15' E 103°37'0 0.0
2017-Nov-09 21:30N 01°15' E 103°37'0 0.0
2017-Nov-09 20:57N 01°15' E 103°37'0 0.0
2017-Nov-09 20:30N 01°15' E 103°37'0 0.0
2017-Nov-09 19:57N 01°15' E 103°37'0 0.0
2017-Nov-09 19:30N 01°15' E 103°37'0 0.0
2017-Nov-09 18:57N 01°15' E 103°37'0 0.0
2017-Nov-09 18:30N 01°15' E 103°37'0 0.0
2017-Nov-09 17:57N 01°15' E 103°37'0 0.0
2017-Nov-09 17:30N 01°15' E 103°37'0 0.0
2017-Nov-09 16:57N 01°15' E 103°37'0 0.0
2017-Nov-09 16:30N 01°15' E 103°37'0 0.0
2017-Nov-09 16:00N 01°15' E 103°37'0 0.0
2017-Nov-09 15:30N 01°15' E 103°37'0 0.0
2017-Nov-09 14:57N 01°15' E 103°37'0 0.0
2017-Nov-09 14:30N 01°15' E 103°37'0 0.0
2017-Nov-09 13:57N 01°15' E 103°37'0 0.0
2017-Nov-09 13:30N 01°15' E 103°37'0 0.0
2017-Nov-09 12:57N 01°15' E 103°37'0 0.0
2017-Nov-09 12:30N 01°15' E 103°37'0 0.0
2017-Nov-09 11:57N 01°15' E 103°37'0 0.0
2017-Nov-09 11:30N 01°15' E 103°37'0 0.0
2017-Nov-09 10:57N 01°15' E 103°37'0 0.0
2017-Nov-09 10:24N 01°15' E 103°37'0 0.0
2017-Nov-09 09:57N 01°15' E 103°37'0 0.0
2017-Nov-09 09:24N 01°15' E 103°37'0 0.0
2017-Nov-09 09:00N 01°15' E 103°37'0 0.0
2017-Nov-09 08:30N 01°15' E 103°37'0 0.0
2017-Nov-09 07:57N 01°15' E 103°37'0 0.0
2017-Nov-09 07:21N 01°15' E 103°37'0 0.0
2017-Nov-09 06:57N 01°15' E 103°37'0 0.0
2017-Nov-09 06:30N 01°15' E 103°37'0 0.0
2017-Nov-09 05:57N 01°15' E 103°37'0 0.0
2017-Nov-09 05:30N 01°15' E 103°37'0 0.0
2017-Nov-09 04:57N 01°15' E 103°37'0 0.0
2017-Nov-09 04:27N 01°15' E 103°37'0 0.0
2017-Nov-09 03:57N 01°15' E 103°37'0 0.0
2017-Nov-09 03:27N 01°15' E 103°37'0 0.0
2017-Nov-09 02:51N 01°15' E 103°37'0 0.0
2017-Nov-09 02:30N 01°15' E 103°37'0 0.0
2017-Nov-09 01:57N 01°15' E 103°37'0 0.0
2017-Nov-09 01:30N 01°15' E 103°37'0 0.0
2017-Nov-09 00:57N 01°15' E 103°37'0 0.0
2017-Nov-09 00:30N 01°15' E 103°37'0 0.0
2017-Nov-08 23:57N 01°15' E 103°37'0 0.0
2017-Nov-08 23:30N 01°15' E 103°37'0 0.0
2017-Nov-08 22:57N 01°15' E 103°37'0 0.0
2017-Nov-08 22:30N 01°15' E 103°37'0 0.0
2017-Nov-08 21:57N 01°15' E 103°37'0 0.0
2017-Nov-08 21:30N 01°15' E 103°37'0 0.0
2017-Nov-08 20:57N 01°15' E 103°37'0 0.0
2017-Nov-08 20:30N 01°15' E 103°37'0 0.0
2017-Nov-08 20:00N 01°15' E 103°37'0 0.0
2017-Nov-08 19:30N 01°15' E 103°37'0 0.0
2017-Nov-08 18:57N 01°15' E 103°37'0 0.0
2017-Nov-08 18:30N 01°15' E 103°37'0 0.0
2017-Nov-08 17:57N 01°15' E 103°37'0 0.0
2017-Nov-08 17:30N 01°15' E 103°37'0 0.0
2017-Nov-08 16:57N 01°15' E 103°37'0 0.0
2017-Nov-08 16:30N 01°15' E 103°37'0 0.0
2017-Nov-08 15:54N 01°15' E 103°37'0 0.0
2017-Nov-08 15:27N 01°15' E 103°37'0 0.0
2017-Nov-08 14:57N 01°15' E 103°37'0 0.0
2017-Nov-08 14:30N 01°15' E 103°37'0 0.0
2017-Nov-08 13:57N 01°15' E 103°37'0 0.0
2017-Nov-08 13:30N 01°15' E 103°37'0 0.0
2017-Nov-08 12:54N 01°15' E 103°37'0 0.0
2017-Nov-08 12:27N 01°15' E 103°37'0 0.0
2017-Nov-08 12:00N 01°15' E 103°37'0 0.0
2017-Nov-08 11:27N 01°15' E 103°37'0 0.0
2017-Nov-08 10:57N 01°15' E 103°37'0 0.0
2017-Nov-08 10:27N 01°15' E 103°37'0 0.0
2017-Nov-08 09:57N 01°15' E 103°37'0 0.0
2017-Nov-08 09:30N 01°15' E 103°37'0 0.0
2017-Nov-08 08:54N 01°15' E 103°37'0 0.0
2017-Nov-08 08:30N 01°15' E 103°37'0 0.0
2017-Nov-08 07:57N 01°15' E 103°37'0 0.0
2017-Nov-08 07:30N 01°15' E 103°37'0 0.0
2017-Nov-08 06:57N 01°15' E 103°37'0 0.0
2017-Nov-08 06:30N 01°15' E 103°37'0 0.0
2017-Nov-08 05:57N 01°15' E 103°37'0 0.0
2017-Nov-08 05:30N 01°15' E 103°37'0 0.0
2017-Nov-08 04:57N 01°15' E 103°37'0 0.0
2017-Nov-08 04:27N 01°15' E 103°37'0 0.0
2017-Nov-08 03:54N 01°15' E 103°37'0 0.0
2017-Nov-08 03:30N 01°15' E 103°37'0 0.0
2017-Nov-08 02:57N 01°15' E 103°37'  

Dump ship's entire track history